sensor_id;sensor_type;location;lat;lon;timestamp;P1;durP1;ratioP1;P2;durP2;ratioP2
79128;SDS011;68529;43.286;23.360;2024-02-16T00:00:57;8.07;;;6.23;;
79128;SDS011;68529;43.286;23.360;2024-02-16T00:03:23;6.87;;;5.97;;
79128;SDS011;68529;43.286;23.360;2024-02-16T00:05:48;7.73;;;6.37;;
79128;SDS011;68529;43.286;23.360;2024-02-16T00:08:16;8.03;;;6.50;;
79128;SDS011;68529;43.286;23.360;2024-02-16T00:10:42;7.00;;;6.30;;
79128;SDS011;68529;43.286;23.360;2024-02-16T00:13:08;10.80;;;6.57;;
79128;SDS011;68529;43.286;23.360;2024-02-16T00:15:33;6.93;;;5.77;;
79128;SDS011;68529;43.286;23.360;2024-02-16T00:17:59;7.27;;;5.27;;
79128;SDS011;68529;43.286;23.360;2024-02-16T00:20:25;6.40;;;5.60;;
79128;SDS011;68529;43.286;23.360;2024-02-16T00:22:50;7.17;;;5.70;;
79128;SDS011;68529;43.286;23.360;2024-02-16T00:25:16;6.20;;;5.43;;
79128;SDS011;68529;43.286;23.360;2024-02-16T00:27:43;5.93;;;5.07;;
79128;SDS011;68529;43.286;23.360;2024-02-16T00:30:08;7.50;;;5.77;;
79128;SDS011;68529;43.286;23.360;2024-02-16T00:32:35;8.30;;;5.43;;
79128;SDS011;68529;43.286;23.360;2024-02-16T00:35:02;6.97;;;5.13;;
79128;SDS011;68529;43.286;23.360;2024-02-16T00:37:27;6.57;;;5.00;;
79128;SDS011;68529;43.286;23.360;2024-02-16T00:39:53;7.90;;;4.97;;
79128;SDS011;68529;43.286;23.360;2024-02-16T00:42:20;7.23;;;5.50;;
79128;SDS011;68529;43.286;23.360;2024-02-16T00:44:48;6.30;;;5.13;;
79128;SDS011;68529;43.286;23.360;2024-02-16T00:47:13;7.87;;;5.23;;
79128;SDS011;68529;43.286;23.360;2024-02-16T00:49:41;7.77;;;5.90;;
79128;SDS011;68529;43.286;23.360;2024-02-16T00:52:07;7.57;;;5.70;;
79128;SDS011;68529;43.286;23.360;2024-02-16T00:54:32;8.63;;;6.00;;
79128;SDS011;68529;43.286;23.360;2024-02-16T00:56:58;7.83;;;6.20;;
79128;SDS011;68529;43.286;23.360;2024-02-16T00:59:27;6.23;;;5.10;;
79128;SDS011;68529;43.286;23.360;2024-02-16T01:01:52;6.77;;;5.73;;
79128;SDS011;68529;43.286;23.360;2024-02-16T01:04:18;7.33;;;5.30;;
79128;SDS011;68529;43.286;23.360;2024-02-16T01:06:43;5.90;;;5.20;;
79128;SDS011;68529;43.286;23.360;2024-02-16T01:09:09;6.33;;;5.37;;
79128;SDS011;68529;43.286;23.360;2024-02-16T01:11:34;6.60;;;5.13;;
79128;SDS011;68529;43.286;23.360;2024-02-16T01:14:00;6.73;;;5.13;;
79128;SDS011;68529;43.286;23.360;2024-02-16T01:16:25;6.27;;;5.20;;
79128;SDS011;68529;43.286;23.360;2024-02-16T01:18:50;5.73;;;5.07;;
79128;SDS011;68529;43.286;23.360;2024-02-16T01:21:16;7.50;;;5.03;;
79128;SDS011;68529;43.286;23.360;2024-02-16T01:23:41;7.50;;;5.47;;
79128;SDS011;68529;43.286;23.360;2024-02-16T01:26:06;6.00;;;5.10;;
79128;SDS011;68529;43.286;23.360;2024-02-16T01:28:32;7.47;;;5.60;;
79128;SDS011;68529;43.286;23.360;2024-02-16T01:30:57;6.67;;;5.57;;
79128;SDS011;68529;43.286;23.360;2024-02-16T01:33:23;5.43;;;4.90;;
79128;SDS011;68529;43.286;23.360;2024-02-16T01:35:48;5.73;;;4.57;;
79128;SDS011;68529;43.286;23.360;2024-02-16T01:38:13;5.73;;;5.03;;
79128;SDS011;68529;43.286;23.360;2024-02-16T01:40:39;7.50;;;5.60;;
79128;SDS011;68529;43.286;23.360;2024-02-16T01:43:05;6.53;;;4.97;;
79128;SDS011;68529;43.286;23.360;2024-02-16T01:45:30;6.80;;;5.50;;
79128;SDS011;68529;43.286;23.360;2024-02-16T01:47:55;7.97;;;5.47;;
79128;SDS011;68529;43.286;23.360;2024-02-16T01:50:21;5.87;;;5.27;;
79128;SDS011;68529;43.286;23.360;2024-02-16T01:52:47;6.53;;;5.03;;
79128;SDS011;68529;43.286;23.360;2024-02-16T01:55:14;6.67;;;5.17;;
79128;SDS011;68529;43.286;23.360;2024-02-16T01:57:42;6.50;;;5.20;;
79128;SDS011;68529;43.286;23.360;2024-02-16T02:00:09;6.87;;;5.57;;
79128;SDS011;68529;43.286;23.360;2024-02-16T02:02:35;8.17;;;5.43;;
79128;SDS011;68529;43.286;23.360;2024-02-16T02:05:01;6.73;;;5.50;;
79128;SDS011;68529;43.286;23.360;2024-02-16T02:07:27;6.23;;;5.37;;
79128;SDS011;68529;43.286;23.360;2024-02-16T02:09:53;5.40;;;4.90;;
79128;SDS011;68529;43.286;23.360;2024-02-16T02:12:19;5.10;;;4.47;;
79128;SDS011;68529;43.286;23.360;2024-02-16T02:14:44;6.37;;;4.93;;
79128;SDS011;68529;43.286;23.360;2024-02-16T02:17:11;6.83;;;5.17;;
79128;SDS011;68529;43.286;23.360;2024-02-16T02:19:37;5.77;;;5.17;;
79128;SDS011;68529;43.286;23.360;2024-02-16T02:22:02;6.03;;;4.87;;
79128;SDS011;68529;43.286;23.360;2024-02-16T02:24:27;5.57;;;5.00;;
79128;SDS011;68529;43.286;23.360;2024-02-16T02:26:53;5.57;;;5.07;;
79128;SDS011;68529;43.286;23.360;2024-02-16T02:29:19;5.03;;;4.50;;
79128;SDS011;68529;43.286;23.360;2024-02-16T02:31:45;7.43;;;4.97;;
79128;SDS011;68529;43.286;23.360;2024-02-16T02:34:10;6.90;;;5.47;;
79128;SDS011;68529;43.286;23.360;2024-02-16T02:36:36;6.37;;;5.17;;
79128;SDS011;68529;43.286;23.360;2024-02-16T02:39:01;6.67;;;5.13;;
79128;SDS011;68529;43.286;23.360;2024-02-16T02:41:27;5.80;;;4.90;;
79128;SDS011;68529;43.286;23.360;2024-02-16T02:43:52;6.23;;;5.20;;
79128;SDS011;68529;43.286;23.360;2024-02-16T02:46:18;6.17;;;5.37;;
79128;SDS011;68529;43.286;23.360;2024-02-16T02:48:44;7.70;;;5.50;;
79128;SDS011;68529;43.286;23.360;2024-02-16T02:51:10;7.30;;;5.47;;
79128;SDS011;68529;43.286;23.360;2024-02-16T02:53:35;6.63;;;5.53;;
79128;SDS011;68529;43.286;23.360;2024-02-16T02:56:01;6.47;;;5.20;;
79128;SDS011;68529;43.286;23.360;2024-02-16T02:58:27;6.93;;;5.43;;
79128;SDS011;68529;43.286;23.360;2024-02-16T03:00:53;5.83;;;5.17;;
79128;SDS011;68529;43.286;23.360;2024-02-16T03:03:19;6.10;;;5.17;;
79128;SDS011;68529;43.286;23.360;2024-02-16T03:05:45;12.03;;;7.17;;
79128;SDS011;68529;43.286;23.360;2024-02-16T03:08:10;7.87;;;5.77;;
79128;SDS011;68529;43.286;23.360;2024-02-16T03:10:36;6.17;;;5.47;;
79128;SDS011;68529;43.286;23.360;2024-02-16T03:13:02;7.43;;;5.70;;
79128;SDS011;68529;43.286;23.360;2024-02-16T03:15:28;6.47;;;5.27;;
79128;SDS011;68529;43.286;23.360;2024-02-16T03:17:54;7.93;;;5.23;;
79128;SDS011;68529;43.286;23.360;2024-02-16T03:20:22;12.90;;;7.50;;
79128;SDS011;68529;43.286;23.360;2024-02-16T03:22:48;7.13;;;6.03;;
79128;SDS011;68529;43.286;23.360;2024-02-16T03:25:14;6.37;;;5.77;;
79128;SDS011;68529;43.286;23.360;2024-02-16T03:27:39;5.80;;;5.07;;
79128;SDS011;68529;43.286;23.360;2024-02-16T03:30:06;6.20;;;5.60;;
79128;SDS011;68529;43.286;23.360;2024-02-16T03:32:32;8.17;;;5.80;;
79128;SDS011;68529;43.286;23.360;2024-02-16T03:34:58;6.40;;;5.23;;
79128;SDS011;68529;43.286;23.360;2024-02-16T03:37:24;6.67;;;6.00;;
79128;SDS011;68529;43.286;23.360;2024-02-16T03:39:49;5.83;;;5.03;;
79128;SDS011;68529;43.286;23.360;2024-02-16T03:42:15;5.27;;;4.77;;
79128;SDS011;68529;43.286;23.360;2024-02-16T03:44:41;6.27;;;4.87;;
79128;SDS011;68529;43.286;23.360;2024-02-16T03:47:06;4.87;;;4.37;;
79128;SDS011;68529;43.286;23.360;2024-02-16T03:49:33;5.37;;;4.70;;
79128;SDS011;68529;43.286;23.360;2024-02-16T03:51:59;6.40;;;5.47;;
79128;SDS011;68529;43.286;23.360;2024-02-16T03:54:24;6.47;;;4.70;;
79128;SDS011;68529;43.286;23.360;2024-02-16T03:56:52;5.90;;;5.07;;
79128;SDS011;68529;43.286;23.360;2024-02-16T03:59:19;6.00;;;5.23;;
79128;SDS011;68529;43.286;23.360;2024-02-16T04:01:44;7.87;;;5.43;;
79128;SDS011;68529;43.286;23.360;2024-02-16T04:04:10;5.33;;;4.77;;
79128;SDS011;68529;43.286;23.360;2024-02-16T04:06:35;6.20;;;5.40;;
79128;SDS011;68529;43.286;23.360;2024-02-16T04:09:01;5.60;;;5.00;;
79128;SDS011;68529;43.286;23.360;2024-02-16T04:11:26;5.97;;;5.20;;
79128;SDS011;68529;43.286;23.360;2024-02-16T04:13:54;7.03;;;5.00;;
79128;SDS011;68529;43.286;23.360;2024-02-16T04:16:19;6.57;;;5.27;;
79128;SDS011;68529;43.286;23.360;2024-02-16T04:18:47;6.07;;;5.27;;
79128;SDS011;68529;43.286;23.360;2024-02-16T04:21:12;5.93;;;5.10;;
79128;SDS011;68529;43.286;23.360;2024-02-16T04:23:38;9.07;;;6.70;;
79128;SDS011;68529;43.286;23.360;2024-02-16T04:26:03;10.03;;;7.53;;
79128;SDS011;68529;43.286;23.360;2024-02-16T04:28:31;9.87;;;6.53;;
79128;SDS011;68529;43.286;23.360;2024-02-16T04:30:57;8.20;;;7.00;;
79128;SDS011;68529;43.286;23.360;2024-02-16T04:33:22;15.70;;;11.07;;
79128;SDS011;68529;43.286;23.360;2024-02-16T04:35:48;9.43;;;7.03;;
79128;SDS011;68529;43.286;23.360;2024-02-16T04:38:15;12.33;;;9.27;;
79128;SDS011;68529;43.286;23.360;2024-02-16T04:40:41;8.27;;;7.43;;
79128;SDS011;68529;43.286;23.360;2024-02-16T04:43:06;7.10;;;5.80;;
79128;SDS011;68529;43.286;23.360;2024-02-16T04:45:32;8.27;;;6.83;;
79128;SDS011;68529;43.286;23.360;2024-02-16T04:47:57;9.07;;;5.77;;
79128;SDS011;68529;43.286;23.360;2024-02-16T04:50:24;9.33;;;6.13;;
79128;SDS011;68529;43.286;23.360;2024-02-16T04:52:49;9.37;;;7.80;;
79128;SDS011;68529;43.286;23.360;2024-02-16T04:55:14;8.23;;;7.43;;
79128;SDS011;68529;43.286;23.360;2024-02-16T04:57:40;9.03;;;6.80;;
79128;SDS011;68529;43.286;23.360;2024-02-16T05:00:06;9.10;;;7.13;;
79128;SDS011;68529;43.286;23.360;2024-02-16T05:02:34;9.70;;;7.97;;
79128;SDS011;68529;43.286;23.360;2024-02-16T05:04:59;10.13;;;8.20;;
79128;SDS011;68529;43.286;23.360;2024-02-16T05:07:25;6.77;;;6.10;;
79128;SDS011;68529;43.286;23.360;2024-02-16T05:09:50;8.20;;;6.57;;
79128;SDS011;68529;43.286;23.360;2024-02-16T05:12:20;9.80;;;7.67;;
79128;SDS011;68529;43.286;23.360;2024-02-16T05:14:49;8.53;;;7.73;;
79128;SDS011;68529;43.286;23.360;2024-02-16T05:17:15;7.37;;;5.63;;
79128;SDS011;68529;43.286;23.360;2024-02-16T05:19:41;7.67;;;5.77;;
79128;SDS011;68529;43.286;23.360;2024-02-16T05:22:06;8.27;;;6.50;;
79128;SDS011;68529;43.286;23.360;2024-02-16T05:24:31;7.90;;;6.17;;
79128;SDS011;68529;43.286;23.360;2024-02-16T05:26:57;8.23;;;6.40;;
79128;SDS011;68529;43.286;23.360;2024-02-16T05:29:23;8.00;;;6.60;;
79128;SDS011;68529;43.286;23.360;2024-02-16T05:31:50;11.77;;;10.57;;
79128;SDS011;68529;43.286;23.360;2024-02-16T05:34:16;11.57;;;8.73;;
79128;SDS011;68529;43.286;23.360;2024-02-16T05:36:42;6.80;;;6.10;;
79128;SDS011;68529;43.286;23.360;2024-02-16T05:39:07;6.73;;;5.50;;
79128;SDS011;68529;43.286;23.360;2024-02-16T05:41:45;8.47;;;5.80;;
79128;SDS011;68529;43.286;23.360;2024-02-16T05:44:12;6.10;;;5.50;;
79128;SDS011;68529;43.286;23.360;2024-02-16T05:46:37;5.67;;;5.00;;
79128;SDS011;68529;43.286;23.360;2024-02-16T05:49:03;7.87;;;6.30;;
79128;SDS011;68529;43.286;23.360;2024-02-16T05:51:36;8.63;;;5.87;;
79128;SDS011;68529;43.286;23.360;2024-02-16T05:54:04;6.40;;;5.80;;
79128;SDS011;68529;43.286;23.360;2024-02-16T05:56:29;5.87;;;5.27;;
79128;SDS011;68529;43.286;23.360;2024-02-16T05:58:58;7.17;;;5.43;;
79128;SDS011;68529;43.286;23.360;2024-02-16T06:01:27;8.23;;;5.97;;
79128;SDS011;68529;43.286;23.360;2024-02-16T06:03:52;7.73;;;7.03;;
79128;SDS011;68529;43.286;23.360;2024-02-16T06:06:18;9.03;;;6.23;;
79128;SDS011;68529;43.286;23.360;2024-02-16T06:08:43;6.40;;;5.80;;
79128;SDS011;68529;43.286;23.360;2024-02-16T06:11:09;11.07;;;7.53;;
79128;SDS011;68529;43.286;23.360;2024-02-16T06:13:35;8.93;;;7.60;;
79128;SDS011;68529;43.286;23.360;2024-02-16T06:16:00;6.47;;;5.70;;
79128;SDS011;68529;43.286;23.360;2024-02-16T06:18:26;6.50;;;5.83;;
79128;SDS011;68529;43.286;23.360;2024-02-16T06:20:54;7.97;;;6.03;;
79128;SDS011;68529;43.286;23.360;2024-02-16T06:23:20;6.93;;;6.13;;
79128;SDS011;68529;43.286;23.360;2024-02-16T06:25:45;9.10;;;5.97;;
79128;SDS011;68529;43.286;23.360;2024-02-16T06:28:11;6.80;;;6.10;;
79128;SDS011;68529;43.286;23.360;2024-02-16T06:30:36;8.03;;;5.77;;
79128;SDS011;68529;43.286;23.360;2024-02-16T06:33:02;7.13;;;6.43;;
79128;SDS011;68529;43.286;23.360;2024-02-16T06:35:28;8.00;;;6.37;;
79128;SDS011;68529;43.286;23.360;2024-02-16T06:37:54;7.17;;;6.10;;
79128;SDS011;68529;43.286;23.360;2024-02-16T06:40:20;6.53;;;5.53;;
79128;SDS011;68529;43.286;23.360;2024-02-16T06:42:46;8.03;;;6.40;;
79128;SDS011;68529;43.286;23.360;2024-02-16T06:45:11;6.67;;;6.03;;
79128;SDS011;68529;43.286;23.360;2024-02-16T06:47:37;8.07;;;5.97;;
79128;SDS011;68529;43.286;23.360;2024-02-16T06:50:02;10.23;;;7.40;;
79128;SDS011;68529;43.286;23.360;2024-02-16T06:52:27;24.93;;;17.93;;
79128;SDS011;68529;43.286;23.360;2024-02-16T06:54:53;21.03;;;14.83;;
79128;SDS011;68529;43.286;23.360;2024-02-16T06:57:18;40.27;;;27.90;;
79128;SDS011;68529;43.286;23.360;2024-02-16T06:59:45;26.40;;;16.63;;
79128;SDS011;68529;43.286;23.360;2024-02-16T07:02:11;11.77;;;8.80;;
79128;SDS011;68529;43.286;23.360;2024-02-16T07:04:36;32.20;;;15.50;;
79128;SDS011;68529;43.286;23.360;2024-02-16T07:07:01;17.60;;;10.70;;
79128;SDS011;68529;43.286;23.360;2024-02-16T07:09:29;74.40;;;40.77;;
79128;SDS011;68529;43.286;23.360;2024-02-16T07:11:54;18.23;;;12.57;;
79128;SDS011;68529;43.286;23.360;2024-02-16T07:14:19;53.07;;;33.77;;
79128;SDS011;68529;43.286;23.360;2024-02-16T07:16:45;36.93;;;25.70;;
79128;SDS011;68529;43.286;23.360;2024-02-16T07:19:10;18.17;;;13.73;;
79128;SDS011;68529;43.286;23.360;2024-02-16T07:21:36;17.00;;;11.53;;
79128;SDS011;68529;43.286;23.360;2024-02-16T07:24:01;12.53;;;7.80;;
79128;SDS011;68529;43.286;23.360;2024-02-16T07:26:27;8.07;;;6.63;;
79128;SDS011;68529;43.286;23.360;2024-02-16T07:28:54;9.00;;;7.40;;
79128;SDS011;68529;43.286;23.360;2024-02-16T07:31:19;15.60;;;11.73;;
79128;SDS011;68529;43.286;23.360;2024-02-16T07:33:45;21.30;;;15.40;;
79128;SDS011;68529;43.286;23.360;2024-02-16T07:36:10;15.20;;;9.37;;
79128;SDS011;68529;43.286;23.360;2024-02-16T07:38:36;7.33;;;6.43;;
79128;SDS011;68529;43.286;23.360;2024-02-16T07:41:01;7.60;;;5.73;;
79128;SDS011;68529;43.286;23.360;2024-02-16T07:43:27;6.53;;;5.77;;
79128;SDS011;68529;43.286;23.360;2024-02-16T07:45:53;10.73;;;5.57;;
79128;SDS011;68529;43.286;23.360;2024-02-16T07:48:22;7.07;;;5.63;;
79128;SDS011;68529;43.286;23.360;2024-02-16T07:50:48;7.40;;;6.13;;
79128;SDS011;68529;43.286;23.360;2024-02-16T07:53:15;6.60;;;5.93;;
79128;SDS011;68529;43.286;23.360;2024-02-16T07:55:41;7.67;;;6.00;;
79128;SDS011;68529;43.286;23.360;2024-02-16T07:58:06;6.17;;;5.57;;
79128;SDS011;68529;43.286;23.360;2024-02-16T08:00:32;6.63;;;5.93;;
79128;SDS011;68529;43.286;23.360;2024-02-16T08:02:57;6.80;;;6.20;;
79128;SDS011;68529;43.286;23.360;2024-02-16T08:05:24;6.70;;;6.00;;
79128;SDS011;68529;43.286;23.360;2024-02-16T08:07:50;7.27;;;6.50;;
79128;SDS011;68529;43.286;23.360;2024-02-16T08:10:18;7.10;;;6.40;;
79128;SDS011;68529;43.286;23.360;2024-02-16T08:12:47;7.03;;;6.00;;
79128;SDS011;68529;43.286;23.360;2024-02-16T08:15:13;5.30;;;4.80;;
79128;SDS011;68529;43.286;23.360;2024-02-16T08:17:39;5.80;;;5.27;;
79128;SDS011;68529;43.286;23.360;2024-02-16T08:20:05;5.80;;;4.90;;
79128;SDS011;68529;43.286;23.360;2024-02-16T08:22:30;6.13;;;5.10;;
79128;SDS011;68529;43.286;23.360;2024-02-16T08:24:57;6.10;;;5.37;;
79128;SDS011;68529;43.286;23.360;2024-02-16T08:27:22;5.97;;;5.37;;
79128;SDS011;68529;43.286;23.360;2024-02-16T08:29:49;5.47;;;4.97;;
79128;SDS011;68529;43.286;23.360;2024-02-16T08:32:16;5.33;;;4.83;;
79128;SDS011;68529;43.286;23.360;2024-02-16T08:34:42;7.40;;;6.17;;
79128;SDS011;68529;43.286;23.360;2024-02-16T08:37:07;6.73;;;6.13;;
79128;SDS011;68529;43.286;23.360;2024-02-16T08:39:33;6.93;;;6.30;;
79128;SDS011;68529;43.286;23.360;2024-02-16T08:41:59;6.33;;;5.77;;
79128;SDS011;68529;43.286;23.360;2024-02-16T08:44:25;6.90;;;6.20;;
79128;SDS011;68529;43.286;23.360;2024-02-16T08:46:51;6.50;;;5.73;;
79128;SDS011;68529;43.286;23.360;2024-02-16T08:49:18;8.50;;;7.03;;
79128;SDS011;68529;43.286;23.360;2024-02-16T08:51:43;8.97;;;6.70;;
79128;SDS011;68529;43.286;23.360;2024-02-16T08:54:09;7.83;;;6.17;;
79128;SDS011;68529;43.286;23.360;2024-02-16T08:56:35;7.10;;;6.37;;
79128;SDS011;68529;43.286;23.360;2024-02-16T08:59:03;6.70;;;5.77;;
79128;SDS011;68529;43.286;23.360;2024-02-16T09:03:58;7.67;;;5.40;;
79128;SDS011;68529;43.286;23.360;2024-02-16T09:06:23;7.47;;;6.40;;
79128;SDS011;68529;43.286;23.360;2024-02-16T09:08:49;6.73;;;5.10;;
79128;SDS011;68529;43.286;23.360;2024-02-16T09:11:14;8.37;;;5.57;;
79128;SDS011;68529;43.286;23.360;2024-02-16T09:13:40;6.17;;;5.57;;
79128;SDS011;68529;43.286;23.360;2024-02-16T09:16:06;5.70;;;5.20;;
79128;SDS011;68529;43.286;23.360;2024-02-16T09:18:32;7.00;;;5.00;;
79128;SDS011;68529;43.286;23.360;2024-02-16T09:20:58;5.90;;;4.60;;
79128;SDS011;68529;43.286;23.360;2024-02-16T09:23:23;11.77;;;8.67;;
79128;SDS011;68529;43.286;23.360;2024-02-16T09:25:48;8.40;;;6.33;;
79128;SDS011;68529;43.286;23.360;2024-02-16T09:28:15;6.40;;;5.10;;
79128;SDS011;68529;43.286;23.360;2024-02-16T09:30:41;10.40;;;8.20;;
79128;SDS011;68529;43.286;23.360;2024-02-16T09:33:07;8.47;;;6.53;;
79128;SDS011;68529;43.286;23.360;2024-02-16T09:35:32;5.47;;;4.97;;
79128;SDS011;68529;43.286;23.360;2024-02-16T09:37:58;6.17;;;4.87;;
79128;SDS011;68529;43.286;23.360;2024-02-16T09:40:23;6.33;;;5.20;;
79128;SDS011;68529;43.286;23.360;2024-02-16T09:42:49;7.20;;;5.57;;
79128;SDS011;68529;43.286;23.360;2024-02-16T09:45:15;6.20;;;5.57;;
79128;SDS011;68529;43.286;23.360;2024-02-16T09:47:47;7.53;;;6.20;;
79128;SDS011;68529;43.286;23.360;2024-02-16T09:50:15;6.87;;;5.33;;
79128;SDS011;68529;43.286;23.360;2024-02-16T09:52:41;7.03;;;5.33;;
79128;SDS011;68529;43.286;23.360;2024-02-16T09:55:12;5.87;;;5.27;;
79128;SDS011;68529;43.286;23.360;2024-02-16T09:57:38;7.57;;;5.83;;
79128;SDS011;68529;43.286;23.360;2024-02-16T10:00:03;4.97;;;4.57;;
79128;SDS011;68529;43.286;23.360;2024-02-16T10:02:39;5.20;;;4.63;;
79128;SDS011;68529;43.286;23.360;2024-02-16T10:07:36;6.33;;;5.00;;
79128;SDS011;68529;43.286;23.360;2024-02-16T10:10:02;6.27;;;5.60;;
79128;SDS011;68529;43.286;23.360;2024-02-16T10:12:27;6.50;;;5.63;;
79128;SDS011;68529;43.286;23.360;2024-02-16T10:14:54;6.47;;;5.70;;
79128;SDS011;68529;43.286;23.360;2024-02-16T10:17:20;5.17;;;4.70;;
79128;SDS011;68529;43.286;23.360;2024-02-16T10:19:54;4.93;;;4.43;;
79128;SDS011;68529;43.286;23.360;2024-02-16T10:22:20;5.57;;;4.93;;
79128;SDS011;68529;43.286;23.360;2024-02-16T10:24:51;5.83;;;5.30;;
79128;SDS011;68529;43.286;23.360;2024-02-16T10:27:21;8.70;;;7.83;;
79128;SDS011;68529;43.286;23.360;2024-02-16T10:29:47;8.80;;;6.43;;
79128;SDS011;68529;43.286;23.360;2024-02-16T10:32:15;6.20;;;5.60;;
79128;SDS011;68529;43.286;23.360;2024-02-16T10:34:41;6.90;;;6.30;;
79128;SDS011;68529;43.286;23.360;2024-02-16T10:37:06;6.10;;;5.50;;
79128;SDS011;68529;43.286;23.360;2024-02-16T10:39:34;5.20;;;4.70;;
79128;SDS011;68529;43.286;23.360;2024-02-16T10:42:00;5.37;;;4.87;;
79128;SDS011;68529;43.286;23.360;2024-02-16T10:44:27;5.60;;;4.57;;
79128;SDS011;68529;43.286;23.360;2024-02-16T10:46:53;5.50;;;4.20;;
79128;SDS011;68529;43.286;23.360;2024-02-16T10:49:21;5.20;;;4.70;;
79128;SDS011;68529;43.286;23.360;2024-02-16T10:51:49;6.23;;;4.97;;
79128;SDS011;68529;43.286;23.360;2024-02-16T10:54:19;5.57;;;4.53;;
79128;SDS011;68529;43.286;23.360;2024-02-16T10:56:48;11.13;;;8.57;;
79128;SDS011;68529;43.286;23.360;2024-02-16T10:59:13;8.77;;;6.83;;
79128;SDS011;68529;43.286;23.360;2024-02-16T11:01:41;10.40;;;8.20;;
79128;SDS011;68529;43.286;23.360;2024-02-16T11:04:12;6.53;;;5.83;;
79128;SDS011;68529;43.286;23.360;2024-02-16T11:06:45;5.63;;;4.97;;
79128;SDS011;68529;43.286;23.360;2024-02-16T11:09:23;6.72;;;5.72;;
79128;SDS011;68529;43.286;23.360;2024-02-16T11:11:58;6.50;;;4.68;;
79128;SDS011;68529;43.286;23.360;2024-02-16T11:14:33;19.02;;;12.23;;
79128;SDS011;68529;43.286;23.360;2024-02-16T11:17:00;5.32;;;4.05;;
79128;SDS011;68529;43.286;23.360;2024-02-16T11:19:26;3.40;;;3.15;;
79128;SDS011;68529;43.286;23.360;2024-02-16T11:21:58;2.90;;;2.70;;
79128;SDS011;68529;43.286;23.360;2024-02-16T11:24:30;2.97;;;2.60;;
79128;SDS011;68529;43.286;23.360;2024-02-16T11:26:57;3.27;;;3.00;;
79128;SDS011;68529;43.286;23.360;2024-02-16T11:29:22;3.17;;;2.87;;
79128;SDS011;68529;43.286;23.360;2024-02-16T11:31:50;4.40;;;3.30;;
79128;SDS011;68529;43.286;23.360;2024-02-16T11:34:25;3.70;;;3.40;;
79128;SDS011;68529;43.286;23.360;2024-02-16T11:36:57;4.53;;;3.30;;
79128;SDS011;68529;43.286;23.360;2024-02-16T11:39:23;3.87;;;3.57;;
79128;SDS011;68529;43.286;23.360;2024-02-16T11:42:01;3.63;;;3.33;;
79128;SDS011;68529;43.286;23.360;2024-02-16T11:44:37;4.00;;;3.10;;
79128;SDS011;68529;43.286;23.360;2024-02-16T11:47:05;4.17;;;3.80;;
79128;SDS011;68529;43.286;23.360;2024-02-16T11:49:40;3.55;;;3.25;;
79128;SDS011;68529;43.286;23.360;2024-02-16T11:52:05;3.88;;;3.50;;
79128;SDS011;68529;43.286;23.360;2024-02-16T11:54:32;3.83;;;3.53;;
79128;SDS011;68529;43.286;23.360;2024-02-16T11:56:58;5.50;;;3.55;;
79128;SDS011;68529;43.286;23.360;2024-02-16T11:59:23;3.40;;;3.10;;
79128;SDS011;68529;43.286;23.360;2024-02-16T12:01:53;3.15;;;2.95;;
79128;SDS011;68529;43.286;23.360;2024-02-16T12:04:29;3.45;;;3.15;;
79128;SDS011;68529;43.286;23.360;2024-02-16T12:06:59;3.53;;;3.23;;
79128;SDS011;68529;43.286;23.360;2024-02-16T12:09:26;3.70;;;3.40;;
79128;SDS011;68529;43.286;23.360;2024-02-16T12:11:53;3.90;;;3.50;;
79128;SDS011;68529;43.286;23.360;2024-02-16T12:14:23;3.90;;;3.08;;
79128;SDS011;68529;43.286;23.360;2024-02-16T12:16:52;3.65;;;3.35;;
79128;SDS011;68529;43.286;23.360;2024-02-16T12:19:21;5.23;;;3.30;;
79128;SDS011;68529;43.286;23.360;2024-02-16T12:21:54;3.93;;;3.50;;
79128;SDS011;68529;43.286;23.360;2024-02-16T12:24:20;5.03;;;3.47;;
79128;SDS011;68529;43.286;23.360;2024-02-16T12:26:46;3.83;;;3.40;;
79128;SDS011;68529;43.286;23.360;2024-02-16T12:29:13;3.33;;;2.95;;
79128;SDS011;68529;43.286;23.360;2024-02-16T12:31:42;3.80;;;3.40;;
79128;SDS011;68529;43.286;23.360;2024-02-16T12:34:09;4.87;;;3.30;;
79128;SDS011;68529;43.286;23.360;2024-02-16T12:36:36;5.50;;;3.58;;
79128;SDS011;68529;43.286;23.360;2024-02-16T12:39:03;4.30;;;3.63;;
79128;SDS011;68529;43.286;23.360;2024-02-16T12:41:29;3.92;;;3.60;;
79128;SDS011;68529;43.286;23.360;2024-02-16T12:43:55;3.78;;;3.47;;
79128;SDS011;68529;43.286;23.360;2024-02-16T12:46:21;3.90;;;3.60;;
79128;SDS011;68529;43.286;23.360;2024-02-16T12:48:46;4.30;;;3.60;;
79128;SDS011;68529;43.286;23.360;2024-02-16T12:51:12;4.37;;;3.70;;
79128;SDS011;68529;43.286;23.360;2024-02-16T12:53:37;3.43;;;3.13;;
79128;SDS011;68529;43.286;23.360;2024-02-16T12:56:06;3.57;;;3.27;;
79128;SDS011;68529;43.286;23.360;2024-02-16T12:58:37;4.60;;;3.23;;
79128;SDS011;68529;43.286;23.360;2024-02-16T13:01:04;3.30;;;3.00;;
79128;SDS011;68529;43.286;23.360;2024-02-16T13:03:36;3.77;;;3.13;;
79128;SDS011;68529;43.286;23.360;2024-02-16T13:06:03;3.10;;;2.90;;
79128;SDS011;68529;43.286;23.360;2024-02-16T13:08:29;2.80;;;2.60;;
79128;SDS011;68529;43.286;23.360;2024-02-16T13:10:55;3.27;;;2.97;;
79128;SDS011;68529;43.286;23.360;2024-02-16T13:13:21;2.80;;;2.60;;
79128;SDS011;68529;43.286;23.360;2024-02-16T13:15:47;4.33;;;2.90;;
79128;SDS011;68529;43.286;23.360;2024-02-16T13:18:13;3.63;;;3.13;;
79128;SDS011;68529;43.286;23.360;2024-02-16T13:20:39;4.87;;;3.60;;
79128;SDS011;68529;43.286;23.360;2024-02-16T13:23:04;4.93;;;3.33;;
79128;SDS011;68529;43.286;23.360;2024-02-16T13:25:30;3.47;;;3.17;;
79128;SDS011;68529;43.286;23.360;2024-02-16T13:27:55;3.53;;;3.23;;
79128;SDS011;68529;43.286;23.360;2024-02-16T13:30:20;4.57;;;3.53;;
79128;SDS011;68529;43.286;23.360;2024-02-16T13:32:46;3.47;;;3.17;;
79128;SDS011;68529;43.286;23.360;2024-02-16T13:35:11;3.33;;;3.03;;
79128;SDS011;68529;43.286;23.360;2024-02-16T13:37:38;3.27;;;3.00;;
79128;SDS011;68529;43.286;23.360;2024-02-16T13:40:06;3.33;;;2.80;;
79128;SDS011;68529;43.286;23.360;2024-02-16T13:42:35;3.93;;;3.53;;
79128;SDS011;68529;43.286;23.360;2024-02-16T13:45:01;3.63;;;3.33;;
79128;SDS011;68529;43.286;23.360;2024-02-16T13:47:27;4.43;;;4.03;;
79128;SDS011;68529;43.286;23.360;2024-02-16T13:49:52;8.00;;;6.40;;
79128;SDS011;68529;43.286;23.360;2024-02-16T13:52:18;13.13;;;8.53;;
79128;SDS011;68529;43.286;23.360;2024-02-16T13:54:44;6.57;;;5.60;;
79128;SDS011;68529;43.286;23.360;2024-02-16T13:57:10;3.50;;;3.20;;
79128;SDS011;68529;43.286;23.360;2024-02-16T13:59:35;3.77;;;3.47;;
79128;SDS011;68529;43.286;23.360;2024-02-16T14:02:00;4.50;;;3.97;;
79128;SDS011;68529;43.286;23.360;2024-02-16T14:04:26;3.13;;;2.93;;
79128;SDS011;68529;43.286;23.360;2024-02-16T14:06:52;3.70;;;3.40;;
79128;SDS011;68529;43.286;23.360;2024-02-16T14:09:18;3.40;;;3.10;;
79128;SDS011;68529;43.286;23.360;2024-02-16T14:11:46;4.00;;;3.60;;
79128;SDS011;68529;43.286;23.360;2024-02-16T14:14:12;3.70;;;3.40;;
79128;SDS011;68529;43.286;23.360;2024-02-16T14:16:37;3.57;;;3.27;;
79128;SDS011;68529;43.286;23.360;2024-02-16T14:19:02;3.00;;;2.80;;
79128;SDS011;68529;43.286;23.360;2024-02-16T14:21:28;3.10;;;2.80;;
79128;SDS011;68529;43.286;23.360;2024-02-16T14:23:54;3.20;;;2.90;;
79128;SDS011;68529;43.286;23.360;2024-02-16T14:26:19;2.87;;;2.60;;
79128;SDS011;68529;43.286;23.360;2024-02-16T14:28:45;3.57;;;3.00;;
79128;SDS011;68529;43.286;23.360;2024-02-16T14:31:11;3.37;;;2.97;;
79128;SDS011;68529;43.286;23.360;2024-02-16T14:33:39;3.73;;;3.37;;